createdAt,value
2017-12-19T00:00:09.926Z,31.90
2017-12-19T00:02:11.021Z,27.90
2017-12-19T00:04:15.426Z,30.10
2017-12-19T00:06:16.585Z,28.73
2017-12-19T00:08:17.551Z,28.50
2017-12-19T00:10:34.311Z,27.67
2017-12-19T00:12:35.291Z,27.20
2017-12-19T00:14:36.369Z,31.23
2017-12-19T00:16:38.291Z,31.70
2017-12-19T00:18:39.281Z,28.33
2017-12-19T00:20:40.239Z,34.13
2017-12-19T00:22:42.004Z,32.27
2017-12-19T00:24:43.808Z,33.80
2017-12-19T00:26:44.820Z,28.47
2017-12-19T00:28:46.652Z,29.83
2017-12-19T00:30:47.662Z,32.77
2017-12-19T00:32:48.635Z,31.83
2017-12-19T00:34:49.629Z,30.67
2017-12-19T00:36:50.577Z,30.13
2017-12-19T00:38:51.657Z,29.13
2017-12-19T00:40:52.642Z,32.53
2017-12-19T00:42:53.720Z,29.60
2017-12-19T00:44:54.705Z,36.93
2017-12-19T00:46:55.740Z,35.80
2017-12-19T00:48:56.760Z,34.63
2017-12-19T00:50:58.507Z,44.40
2017-12-19T00:53:00.263Z,36.97
2017-12-19T00:55:01.381Z,33.93
2017-12-19T00:57:02.458Z,38.67
2017-12-19T00:59:03.473Z,35.27
2017-12-19T01:01:04.505Z,42.83
2017-12-19T01:03:05.521Z,34.40
2017-12-19T01:05:07.269Z,43.20
2017-12-19T01:07:08.249Z,38.77
2017-12-19T01:09:09.301Z,44.73
2017-12-19T01:11:10.412Z,41.33
2017-12-19T01:13:12.129Z,40.10
2017-12-19T01:15:13.137Z,41.17
2017-12-19T01:17:14.172Z,39.93
2017-12-19T01:19:15.221Z,41.07
2017-12-19T01:21:16.182Z,40.57
2017-12-19T01:23:17.964Z,43.43
2017-12-19T01:25:19.067Z,44.47
2017-12-19T01:27:20.053Z,44.77
2017-12-19T01:29:21.106Z,42.93
2017-12-19T01:31:22.148Z,45.63
2017-12-19T01:33:23.264Z,44.83
2017-12-19T01:35:24.312Z,47.37
2017-12-19T01:37:25.305Z,46.10
2017-12-19T01:39:26.354Z,49.27
2017-12-19T01:41:27.334Z,52.97
2017-12-19T01:43:28.390Z,51.23
2017-12-19T01:45:29.399Z,49.20
2017-12-19T01:47:30.424Z,46.77
2017-12-19T01:49:31.536Z,51.23
2017-12-19T01:51:32.641Z,52.70
2017-12-19T01:53:33.651Z,46.50
2017-12-19T01:55:35.408Z,52.90
2017-12-19T01:57:36.373Z,51.03
2017-12-19T01:59:37.418Z,55.10
2017-12-19T02:01:39.200Z,51.90
2017-12-19T02:03:40.241Z,51.77
2017-12-19T02:05:41.337Z,54.27
2017-12-19T02:07:42.309Z,59.90
2017-12-19T02:09:43.326Z,59.43
2017-12-19T02:11:44.317Z,62.77
2017-12-19T02:13:46.050Z,66.70
2017-12-19T02:15:47.060Z,67.17
2017-12-19T02:17:48.109Z,60.20
2017-12-19T02:19:49.124Z,57.43
2017-12-19T02:21:50.141Z,73.80
2017-12-19T02:23:51.173Z,57.13
2017-12-19T02:25:52.240Z,61.90
2017-12-19T02:27:53.246Z,65.80
2017-12-19T02:29:54.219Z,61.60
2017-12-19T02:31:55.261Z,57.27
2017-12-19T02:33:56.246Z,64.10
2017-12-19T02:35:57.216Z,71.33
2017-12-19T02:37:59.809Z,72.40
2017-12-19T02:40:00.901Z,60.43
2017-12-19T02:42:01.936Z,79.17
2017-12-19T02:44:02.944Z,65.17
2017-12-19T02:46:04.041Z,63.40
2017-12-19T02:48:05.099Z,72.13
2017-12-19T02:50:06.149Z,58.73
2017-12-19T02:52:07.186Z,75.23
2017-12-19T02:54:08.204Z,73.23
2017-12-19T02:56:09.204Z,61.27
2017-12-19T02:58:11.061Z,62.17
2017-12-19T03:00:12.090Z,62.33
2017-12-19T03:02:13.204Z,70.37
2017-12-19T03:04:14.184Z,67.10
2017-12-19T03:06:15.216Z,71.33
2017-12-19T03:08:16.233Z,76.03
2017-12-19T03:10:17.206Z,82.40
2017-12-19T03:12:18.249Z,74.47
2017-12-19T03:14:19.273Z,73.23
2017-12-19T03:16:20.344Z,71.57
2017-12-19T03:18:21.362Z,73.17
2017-12-19T03:20:22.513Z,75.77
2017-12-19T03:22:24.354Z,81.30
2017-12-19T03:24:25.372Z,77.10
2017-12-19T03:26:26.396Z,89.20
2017-12-19T03:28:27.428Z,86.97
2017-12-19T03:30:28.694Z,74.60
2017-12-19T03:32:29.677Z,95.50
2017-12-19T03:34:30.684Z,91.03
2017-12-19T03:36:31.637Z,85.67
2017-12-19T03:38:32.697Z,81.83
2017-12-19T03:40:33.692Z,80.47
2017-12-19T03:42:34.745Z,87.57
2017-12-19T03:44:35.735Z,82.37
2017-12-19T03:46:36.813Z,76.60
2017-12-19T03:48:37.929Z,95.27
2017-12-19T03:50:38.936Z,81.00
2017-12-19T03:52:40.696Z,91.87
2017-12-19T03:54:41.878Z,88.20
2017-12-19T03:56:42.897Z,87.33
2017-12-19T03:58:44.675Z,84.63
2017-12-19T04:00:45.673Z,101.83
2017-12-19T04:02:46.715Z,87.03
2017-12-19T04:04:47.755Z,99.63
2017-12-19T04:06:48.828Z,100.47
2017-12-19T04:08:49.809Z,82.67
2017-12-19T04:10:50.834Z,103.83
2017-12-19T04:12:51.915Z,91.53
2017-12-19T04:14:53.069Z,100.80
2017-12-19T04:16:54.143Z,96.30
2017-12-19T04:18:55.189Z,92.23
2017-12-19T04:20:56.229Z,97.77
2017-12-19T04:22:57.247Z,105.00
2017-12-19T04:24:59.009Z,113.03
2017-12-19T04:27:00.069Z,108.13
2017-12-19T04:29:01.094Z,105.70
2017-12-19T04:31:02.904Z,107.93
2017-12-19T04:33:03.885Z,105.87
2017-12-19T04:35:04.905Z,131.30
2017-12-19T04:37:05.885Z,117.30
2017-12-19T04:39:06.894Z,132.83
2017-12-19T04:41:07.948Z,127.17
2017-12-19T04:43:08.995Z,128.30
2017-12-19T04:45:10.808Z,114.40
2017-12-19T04:47:11.794Z,140.10
2017-12-19T04:49:12.825Z,128.13
2017-12-19T04:51:13.832Z,140.63
2017-12-19T04:53:14.869Z,125.77
2017-12-19T04:55:15.872Z,124.47
2017-12-19T04:57:16.916Z,119.07
2017-12-19T04:59:17.910Z,137.50
2017-12-19T05:01:19.035Z,126.73
2017-12-19T05:03:19.998Z,128.20
2017-12-19T05:05:21.041Z,145.73
2017-12-19T05:07:22.035Z,141.17
2017-12-19T05:09:23.744Z,124.60
2017-12-19T05:11:24.797Z,139.53
2017-12-19T05:13:25.797Z,126.43
2017-12-19T05:15:26.852Z,122.83
2017-12-19T05:17:27.855Z,152.43
2017-12-19T05:19:29.162Z,155.20
2017-12-19T05:21:30.232Z,158.90
2017-12-19T05:23:31.209Z,157.43
2017-12-19T05:25:32.215Z,133.03
2017-12-19T05:27:33.189Z,138.70
2017-12-19T05:29:34.185Z,144.63
2017-12-19T05:31:35.952Z,147.97
2017-12-19T05:33:36.972Z,149.60
2017-12-19T05:35:37.992Z,144.97
2017-12-19T05:37:39.028Z,151.47
2017-12-19T05:39:40.092Z,155.20
2017-12-19T05:41:41.098Z,165.00
2017-12-19T05:43:42.156Z,147.03
2017-12-19T05:45:43.205Z,162.13
2017-12-19T05:47:44.259Z,161.80
2017-12-19T05:49:45.262Z,155.60
2017-12-19T05:51:47.074Z,184.33
2017-12-19T05:53:48.118Z,158.33
2017-12-19T05:55:49.126Z,161.27
2017-12-19T05:57:50.109Z,165.10
2017-12-19T05:59:51.168Z,148.57
2017-12-19T06:01:52.169Z,155.87
2017-12-19T06:03:53.190Z,179.70
2017-12-19T06:05:54.193Z,190.47
2017-12-19T06:07:55.156Z,165.53
2017-12-19T06:09:56.219Z,167.57
2017-12-19T06:11:57.266Z,160.67
2017-12-19T06:13:58.308Z,161.20
2017-12-19T06:15:59.323Z,169.50
2017-12-19T06:18:00.361Z,164.00
2017-12-19T06:20:01.418Z,166.40
2017-12-19T06:22:02.413Z,161.07
2017-12-19T06:24:03.460Z,169.40
2017-12-19T06:26:04.480Z,190.63
2017-12-19T06:28:05.486Z,180.33
2017-12-19T06:30:07.214Z,167.57
2017-12-19T06:32:08.229Z,165.60
2017-12-19T06:34:09.244Z,158.97
2017-12-19T06:36:10.247Z,167.17
2017-12-19T06:38:11.269Z,158.90
2017-12-19T06:40:13.030Z,149.73
2017-12-19T06:42:14.053Z,143.87
2017-12-19T06:44:15.800Z,148.57
2017-12-19T06:46:16.916Z,151.03
2017-12-19T06:48:18.085Z,148.43
2017-12-19T06:50:19.830Z,127.33
2017-12-19T06:52:20.837Z,148.57
2017-12-19T06:54:21.851Z,164.30
2017-12-19T06:56:22.889Z,144.60
2017-12-19T06:58:23.951Z,147.13
2017-12-19T07:00:25.735Z,155.83
2017-12-19T07:02:27.465Z,171.00
2017-12-19T07:04:28.469Z,167.70
2017-12-19T07:06:29.484Z,164.40
2017-12-19T07:08:30.465Z,151.87
2017-12-19T07:10:31.455Z,163.93
2017-12-19T07:12:32.492Z,167.97
2017-12-19T07:14:33.476Z,157.83
2017-12-19T07:16:34.484Z,180.90
2017-12-19T07:18:35.552Z,186.67
2017-12-19T07:20:36.544Z,174.97
2017-12-19T07:22:37.598Z,159.73
2017-12-19T07:24:38.622Z,191.33
2017-12-19T07:26:39.592Z,173.70
2017-12-19T07:28:40.554Z,196.07
2017-12-19T07:30:41.529Z,175.93
2017-12-19T07:32:42.604Z,199.73
2017-12-19T07:34:44.373Z,167.70
2017-12-19T07:36:45.361Z,184.97
2017-12-19T07:38:46.325Z,192.53
2017-12-19T07:40:47.294Z,172.47
2017-12-19T07:42:48.321Z,206.97
2017-12-19T07:44:49.321Z,201.70
2017-12-19T07:46:50.320Z,187.90
2017-12-19T07:48:51.375Z,188.93
2017-12-19T07:50:52.363Z,186.53
2017-12-19T07:52:53.367Z,184.60
2017-12-19T07:54:54.345Z,222.10
2017-12-19T07:56:55.354Z,200.53
2017-12-19T07:58:56.390Z,225.63
2017-12-19T08:00:57.480Z,216.00
2017-12-19T08:02:58.968Z,185.67
2017-12-19T08:05:00.007Z,217.27
2017-12-19T08:07:01.081Z,223.47
2017-12-19T08:09:02.077Z,220.60
2017-12-19T08:11:03.167Z,195.73
2017-12-19T08:13:04.194Z,247.50
2017-12-19T08:15:05.169Z,234.17
2017-12-19T08:17:06.184Z,278.03
2017-12-19T08:19:07.173Z,215.00
2017-12-19T08:21:08.177Z,232.40
2017-12-19T08:23:09.178Z,252.73
2017-12-19T08:25:10.897Z,263.50
2017-12-19T08:27:11.859Z,282.10
2017-12-19T08:29:12.827Z,272.27
2017-12-19T08:31:14.515Z,260.60
2017-12-19T08:33:15.456Z,222.33
2017-12-19T08:35:16.404Z,222.67
2017-12-19T08:37:17.332Z,201.67
2017-12-19T08:39:19.012Z,256.77
2017-12-19T08:41:19.944Z,249.73
2017-12-19T08:43:21.636Z,224.63
2017-12-19T08:45:22.600Z,277.47
2017-12-19T08:47:23.532Z,188.57
2017-12-19T08:49:24.492Z,238.17
2017-12-19T08:51:25.478Z,209.17
2017-12-19T08:53:27.180Z,255.80
2017-12-19T08:55:28.863Z,267.90
2017-12-19T08:57:29.807Z,235.43
2017-12-19T08:59:30.764Z,236.73
2017-12-19T09:01:31.719Z,266.13
2017-12-19T09:03:32.653Z,246.83
2017-12-19T09:05:33.595Z,220.67
2017-12-19T09:07:34.544Z,241.73
2017-12-19T09:09:35.488Z,213.10
2017-12-19T09:11:36.432Z,221.80
2017-12-19T09:13:37.381Z,226.17
2017-12-19T09:15:38.501Z,194.30
2017-12-19T09:17:39.469Z,193.47
2017-12-19T09:19:40.441Z,249.40
2017-12-19T09:21:41.384Z,285.87
2017-12-19T09:23:42.341Z,192.23
2017-12-19T09:25:43.305Z,238.90
2017-12-19T09:27:44.980Z,251.90
2017-12-19T09:29:45.936Z,231.37
2017-12-19T09:31:47.103Z,206.50
2017-12-19T09:33:48.113Z,217.43
2017-12-19T09:35:49.088Z,190.60
2017-12-19T09:37:50.086Z,161.80
2017-12-19T09:39:51.072Z,145.97
2017-12-19T09:41:52.016Z,157.87
2017-12-19T09:43:52.991Z,195.27
2017-12-19T09:45:53.932Z,192.67
2017-12-19T09:47:54.965Z,198.57
2017-12-19T09:49:56.002Z,159.40
2017-12-19T09:51:56.938Z,190.97
2017-12-19T09:53:57.887Z,180.30
2017-12-19T09:55:58.863Z,159.27
2017-12-19T09:57:59.828Z,147.00
2017-12-19T10:00:00.790Z,154.47
2017-12-19T10:02:01.732Z,110.13
2017-12-19T10:04:02.711Z,119.57
2017-12-19T10:06:03.650Z,131.20
2017-12-19T10:08:04.592Z,133.13
2017-12-19T10:10:05.557Z,117.23
2017-12-19T10:12:06.626Z,145.13
2017-12-19T10:14:07.572Z,154.47
2017-12-19T10:16:09.316Z,119.63
2017-12-19T10:18:10.292Z,100.27
2017-12-19T10:20:11.447Z,102.60
2017-12-19T10:22:12.469Z,125.57
2017-12-19T10:24:13.481Z,109.67
2017-12-19T10:26:15.195Z,104.60
2017-12-19T10:28:16.144Z,114.63
2017-12-19T10:30:17.119Z,98.80
2017-12-19T10:32:18.832Z,103.30
2017-12-19T10:34:20.524Z,103.20
2017-12-19T10:36:21.504Z,108.73
2017-12-19T10:38:23.188Z,87.10
2017-12-19T10:40:24.128Z,105.50
2017-12-19T10:42:25.859Z,92.43
2017-12-19T10:44:26.812Z,86.63
2017-12-19T10:46:28.589Z,73.67
2017-12-19T10:48:29.569Z,98.93
2017-12-19T10:50:30.520Z,73.57
2017-12-19T10:52:31.496Z,100.60
2017-12-19T10:54:32.444Z,88.47
2017-12-19T10:56:33.388Z,68.27
2017-12-19T10:58:34.324Z,72.43
2017-12-19T11:00:35.260Z,72.60
2017-12-19T11:02:36.189Z,74.77
2017-12-19T11:04:37.139Z,73.10
2017-12-19T11:06:38.087Z,70.57
2017-12-19T11:08:39.082Z,65.10
2017-12-19T11:10:40.777Z,66.83
2017-12-19T11:12:41.758Z,76.93
2017-12-19T11:14:42.983Z,88.40
2017-12-19T11:16:43.989Z,87.43
2017-12-19T11:18:44.948Z,74.30
2017-12-19T11:20:46.648Z,58.27
2017-12-19T11:22:47.650Z,115.83
2017-12-19T11:24:48.665Z,80.30
2017-12-19T11:26:49.636Z,86.57
2017-12-19T11:28:50.585Z,66.23
2017-12-19T11:30:51.596Z,74.13
2017-12-19T11:32:52.594Z,64.10
2017-12-19T11:34:54.352Z,91.03
2017-12-19T11:36:56.088Z,88.90
2017-12-19T11:38:57.057Z,66.10
2017-12-19T11:40:58.761Z,91.10
2017-12-19T11:42:59.729Z,75.67
2017-12-19T11:45:00.669Z,77.60
2017-12-19T11:47:01.600Z,80.03
2017-12-19T11:49:02.622Z,66.03
2017-12-19T11:51:03.545Z,73.63
2017-12-19T11:53:05.236Z,85.50
2017-12-19T11:55:06.215Z,100.20
2017-12-19T11:57:07.170Z,80.27
2017-12-19T11:59:08.131Z,101.90
2017-12-19T12:01:09.092Z,114.13
2017-12-19T12:03:10.053Z,97.77
2017-12-19T12:05:11.757Z,116.73
2017-12-19T12:07:12.712Z,101.83
2017-12-19T12:09:13.629Z,108.00
2017-12-19T12:11:14.583Z,100.93
2017-12-19T12:13:16.244Z,91.53
2017-12-19T12:15:17.190Z,85.47
2017-12-19T12:17:18.153Z,86.47
2017-12-19T12:19:19.088Z,81.33
2017-12-19T12:21:20.105Z,61.00
2017-12-19T12:23:21.073Z,93.53
2017-12-19T12:25:22.084Z,74.27
2017-12-19T12:27:23.841Z,87.83
2017-12-19T12:29:25.536Z,69.63
2017-12-19T12:31:26.495Z,74.13
2017-12-19T12:33:27.416Z,70.00
2017-12-19T12:35:28.345Z,78.30
2017-12-19T12:37:30.025Z,68.60
2017-12-19T12:39:30.956Z,84.80
2017-12-19T12:41:32.636Z,91.67
2017-12-19T12:43:33.573Z,85.20
2017-12-19T12:45:35.248Z,66.83
2017-12-19T12:47:36.208Z,87.53
2017-12-19T12:49:37.180Z,81.37
2017-12-19T12:51:38.137Z,63.57
2017-12-19T12:53:39.126Z,77.20
2017-12-19T12:55:40.831Z,75.63
2017-12-19T12:57:41.809Z,85.97
2017-12-19T12:59:42.791Z,69.57
2017-12-19T13:01:43.751Z,84.13
2017-12-19T13:03:44.761Z,85.07
2017-12-19T13:05:46.480Z,85.37
2017-12-19T13:07:47.427Z,108.10
2017-12-19T13:09:48.387Z,75.63
2017-12-19T13:11:49.336Z,83.83
2017-12-19T13:13:50.311Z,75.63
2017-12-19T13:15:52.011Z,78.80
2017-12-19T13:17:52.973Z,86.20
2017-12-19T13:19:53.928Z,61.47
2017-12-19T13:21:54.880Z,89.50
2017-12-19T13:23:55.827Z,74.67
2017-12-19T13:25:56.796Z,85.10
2017-12-19T13:30:25.138Z,80.87
2017-12-19T13:32:27.262Z,81.67
2017-12-19T13:34:28.220Z,101.00
2017-12-19T13:36:29.214Z,72.17
2017-12-19T13:38:30.299Z,78.90
2017-12-19T13:40:31.234Z,87.37
2017-12-19T13:42:32.169Z,102.43
2017-12-19T13:44:33.136Z,86.60
2017-12-19T13:46:34.178Z,79.70
2017-12-19T13:48:35.076Z,76.33
2017-12-19T13:50:36.007Z,77.97
2017-12-19T13:52:37.728Z,82.60
2017-12-19T13:54:38.648Z,92.90
2017-12-19T13:56:39.608Z,72.40
2017-12-19T13:58:40.625Z,72.40
2017-12-19T14:00:41.586Z,75.57
2017-12-19T14:02:42.543Z,84.43
2017-12-19T14:04:43.502Z,70.87
2017-12-19T14:06:44.491Z,79.60
2017-12-19T14:08:46.169Z,60.50
2017-12-19T14:10:47.105Z,74.03
2017-12-19T14:12:48.031Z,77.43
2017-12-19T14:14:49.710Z,95.03
2017-12-19T14:16:50.673Z,77.70
2017-12-19T14:18:51.627Z,76.20
2017-12-19T14:20:52.555Z,70.70
2017-12-19T14:22:53.488Z,81.27
2017-12-19T14:24:55.204Z,78.13
2017-12-19T14:26:56.186Z,75.57
2017-12-19T14:28:57.923Z,82.40
2017-12-19T14:30:58.863Z,99.10
2017-12-19T14:32:59.851Z,81.77
2017-12-19T14:35:01.511Z,71.00
2017-12-19T14:37:03.208Z,69.07
2017-12-19T14:39:04.238Z,81.33
2017-12-19T14:41:05.173Z,83.20
2017-12-19T14:43:06.830Z,79.63
2017-12-19T14:45:08.501Z,96.37
2017-12-19T14:47:09.462Z,71.23
2017-12-19T14:49:10.403Z,76.17
2017-12-19T14:51:11.348Z,76.70
2017-12-19T14:53:12.319Z,86.90
2017-12-19T14:55:13.242Z,81.30
2017-12-19T14:57:14.158Z,69.20
2017-12-19T14:59:15.840Z,78.70
2017-12-19T15:01:16.797Z,74.07
2017-12-19T15:03:17.734Z,97.60
2017-12-19T15:05:18.676Z,95.70
2017-12-19T15:07:19.634Z,90.90
2017-12-19T15:09:20.567Z,97.20
2017-12-19T15:11:22.236Z,78.73
2017-12-19T15:13:23.170Z,91.53
2017-12-19T15:15:24.864Z,99.57
2017-12-19T15:17:25.842Z,88.63
2017-12-19T15:19:26.779Z,93.80
2017-12-19T15:21:27.686Z,92.83
2017-12-19T15:23:28.619Z,78.37
2017-12-19T15:25:29.545Z,108.20
2017-12-19T15:27:31.207Z,94.57
2017-12-19T15:29:32.889Z,84.97
2017-12-19T15:31:33.862Z,84.27
2017-12-19T15:33:34.816Z,95.23
2017-12-19T15:35:35.811Z,100.50
2017-12-19T15:37:37.462Z,83.80
2017-12-19T15:39:38.385Z,81.13
2017-12-19T15:41:39.290Z,81.37
2017-12-19T15:43:40.224Z,137.47
2017-12-19T15:45:47.860Z,108.27
2017-12-19T15:47:49.555Z,81.50
2017-12-19T15:49:50.509Z,112.70
2017-12-19T15:51:51.430Z,160.00
2017-12-19T15:53:52.367Z,145.47
2017-12-19T15:55:53.298Z,87.97
2017-12-19T15:57:54.202Z,103.63
2017-12-19T15:59:55.886Z,101.60
2017-12-19T16:01:56.822Z,93.83
2017-12-19T16:03:58.494Z,84.97
2017-12-19T16:05:59.430Z,79.20
2017-12-19T16:08:00.394Z,96.43
2017-12-19T16:10:01.323Z,106.20
2017-12-19T16:12:02.276Z,83.77
2017-12-19T16:14:03.198Z,103.43
2017-12-19T16:16:04.897Z,116.90
2017-12-19T16:18:05.874Z,95.77
2017-12-19T16:20:06.874Z,105.83
2017-12-19T16:22:08.186Z,95.77
2017-12-19T16:24:09.883Z,105.50
2017-12-19T16:26:10.830Z,117.63
2017-12-19T16:28:11.752Z,111.70
2017-12-19T16:30:12.714Z,111.97
2017-12-19T16:32:14.375Z,115.47
2017-12-19T16:34:16.516Z,129.87
2017-12-19T16:36:17.500Z,115.33
2017-12-19T16:38:18.455Z,100.73
2017-12-19T16:40:19.414Z,114.67
2017-12-19T16:42:20.346Z,108.87
2017-12-19T16:44:21.266Z,132.80
2017-12-19T16:46:22.930Z,124.10
2017-12-19T16:48:24.632Z,117.00
2017-12-19T16:50:25.566Z,139.67
2017-12-19T16:52:26.500Z,116.13
2017-12-19T16:54:27.634Z,146.37
2017-12-19T16:56:29.491Z,110.03
2017-12-19T16:58:30.416Z,119.87
2017-12-19T17:00:31.357Z,131.23
2017-12-19T17:02:32.292Z,108.77
2017-12-19T17:04:34.477Z,98.70
2017-12-19T17:06:35.434Z,109.10
2017-12-19T17:08:36.394Z,120.47
2017-12-19T17:10:37.415Z,109.33
2017-12-19T17:12:38.308Z,119.37
2017-12-19T17:14:39.994Z,117.53
2017-12-19T17:16:40.949Z,128.57
2017-12-19T17:18:41.984Z,105.87
2017-12-19T17:20:42.967Z,102.80
2017-12-19T17:22:43.964Z,112.70
2017-12-19T17:24:45.660Z,115.23
2017-12-19T17:26:46.718Z,117.43
2017-12-19T17:28:47.678Z,121.03
2017-12-19T17:30:48.686Z,111.07
2017-12-19T17:32:49.662Z,100.50
2017-12-19T17:34:50.607Z,128.83
2017-12-19T17:36:51.577Z,95.33
2017-12-19T17:38:52.573Z,115.90
2017-12-19T17:40:53.527Z,99.40
2017-12-19T17:42:54.509Z,100.90
2017-12-19T17:44:55.499Z,102.37
2017-12-19T17:46:56.481Z,106.30
2017-12-19T17:48:57.428Z,123.83
2017-12-19T17:50:58.402Z,108.40
2017-12-19T17:52:59.418Z,102.20
2017-12-19T17:55:00.391Z,117.33
2017-12-19T17:57:01.364Z,125.63
2017-12-19T17:59:02.315Z,99.53
2017-12-19T18:01:03.283Z,106.17
2017-12-19T18:03:04.247Z,114.33
2017-12-19T18:05:05.232Z,122.10
2017-12-19T18:07:06.236Z,136.57
2017-12-19T18:09:07.217Z,116.40
2017-12-19T18:11:08.231Z,119.60
2017-12-19T18:13:09.216Z,129.77
2017-12-19T18:15:11.239Z,119.27
2017-12-19T18:17:12.226Z,132.37
2017-12-19T18:19:13.151Z,105.90
2017-12-19T18:21:14.152Z,111.73
2017-12-19T18:23:15.186Z,112.70
2017-12-19T18:25:16.879Z,135.10
2017-12-19T18:27:17.907Z,108.30
2017-12-19T18:29:18.868Z,116.27
2017-12-19T18:31:19.819Z,106.07
2017-12-19T18:33:20.833Z,127.33
2017-12-19T18:35:22.515Z,116.07
2017-12-19T18:37:23.471Z,107.73
2017-12-19T18:39:24.464Z,135.17
2017-12-19T18:41:25.406Z,144.17
2017-12-19T18:43:26.370Z,134.30
2017-12-19T18:45:27.337Z,142.87
2017-12-19T18:47:28.344Z,122.67
2017-12-19T18:49:29.319Z,128.93
2017-12-19T18:51:31.086Z,117.23
2017-12-19T18:53:32.070Z,126.57
2017-12-19T18:55:33.023Z,139.83
2017-12-19T18:57:33.987Z,116.23
2017-12-19T18:59:34.929Z,144.43
2017-12-19T19:01:35.915Z,159.27
2017-12-19T19:03:36.872Z,168.47
2017-12-19T19:05:37.843Z,160.33
2017-12-19T19:07:38.809Z,150.27
2017-12-19T19:09:39.757Z,153.07
2017-12-19T19:11:40.721Z,156.30
2017-12-19T19:13:41.732Z,160.97
2017-12-19T19:15:42.759Z,177.40
2017-12-19T19:17:43.740Z,187.67
2017-12-19T19:19:44.712Z,192.33
2017-12-19T19:21:48.729Z,183.00
2017-12-19T19:23:49.754Z,206.13
2017-12-19T19:25:50.716Z,173.63
2017-12-19T19:27:51.806Z,179.17
2017-12-19T19:29:52.863Z,188.83
2017-12-19T19:31:53.863Z,198.07
2017-12-19T19:33:54.820Z,216.97
2017-12-19T19:35:56.624Z,194.67
2017-12-19T19:37:57.603Z,197.43
2017-12-19T19:39:58.616Z,247.97
2017-12-19T19:41:59.567Z,168.93
2017-12-19T19:44:00.640Z,177.23
2017-12-19T19:46:01.579Z,191.90
2017-12-19T19:48:02.943Z,205.10
2017-12-19T19:50:03.959Z,206.00
2017-12-19T19:52:04.998Z,239.53
2017-12-19T19:54:06.020Z,244.70
2017-12-19T19:56:07.000Z,254.73
2017-12-19T19:58:07.975Z,239.17
2017-12-19T20:00:08.968Z,260.43
2017-12-19T20:02:10.068Z,283.00
2017-12-19T20:04:11.061Z,276.83
2017-12-19T20:06:12.025Z,274.83
2017-12-19T20:08:13.090Z,228.63
2017-12-19T20:10:14.090Z,253.90
2017-12-19T20:12:15.796Z,194.50
2017-12-19T20:14:16.822Z,222.80
2017-12-19T20:16:17.920Z,211.00
2017-12-19T20:18:18.960Z,192.17
2017-12-19T20:20:19.961Z,223.63
2017-12-19T20:22:21.297Z,217.27
2017-12-19T20:24:22.344Z,212.73
2017-12-19T20:26:23.390Z,217.43
2017-12-19T20:28:24.409Z,283.60
2017-12-19T20:30:25.446Z,270.07
2017-12-19T20:32:26.457Z,244.67
2017-12-19T20:34:27.455Z,225.43
2017-12-19T20:36:29.240Z,227.37
2017-12-19T20:38:31.006Z,229.40
2017-12-19T20:40:31.998Z,223.50
2017-12-19T20:42:33.007Z,249.77
2017-12-19T20:44:34.714Z,199.97
2017-12-19T20:46:35.658Z,248.20
2017-12-19T20:48:36.765Z,213.63
2017-12-19T20:50:37.740Z,170.70
2017-12-19T20:52:38.730Z,203.47
2017-12-19T20:54:39.708Z,219.27
2017-12-19T20:56:40.648Z,205.83
2017-12-19T20:58:42.390Z,181.80
2017-12-19T21:00:43.396Z,183.10
2017-12-19T21:02:44.355Z,183.33
2017-12-19T21:04:45.412Z,197.10
2017-12-19T21:06:46.365Z,179.57
2017-12-19T21:08:47.416Z,182.27
2017-12-19T21:10:50.020Z,213.03
2017-12-19T21:12:51.008Z,201.10
2017-12-19T21:14:51.997Z,186.57
2017-12-19T21:16:53.033Z,178.97
2017-12-19T21:18:54.086Z,173.20
2017-12-19T21:20:55.048Z,198.87
2017-12-19T21:22:56.020Z,203.90
2017-12-19T21:24:57.063Z,175.43
2017-12-19T21:26:58.048Z,188.83
2017-12-19T21:28:59.003Z,171.23
2017-12-19T21:31:00.026Z,189.10
2017-12-19T21:33:01.008Z,219.03
2017-12-19T21:35:02.074Z,214.33
2017-12-19T21:37:03.786Z,236.43
2017-12-19T21:39:04.839Z,198.13
2017-12-19T21:41:05.803Z,184.33
2017-12-19T21:43:06.885Z,178.07
2017-12-19T21:45:08.623Z,178.73
2017-12-19T21:47:09.578Z,146.17
2017-12-19T21:49:10.548Z,197.73
2017-12-19T21:51:11.483Z,158.77
2017-12-19T21:53:12.444Z,219.57
2017-12-19T21:55:13.421Z,214.00
2017-12-19T21:57:14.464Z,196.70
2017-12-19T21:59:16.191Z,180.13
2017-12-19T22:01:17.166Z,165.10
2017-12-19T22:03:18.235Z,188.10
2017-12-19T22:05:19.228Z,173.33
2017-12-19T22:07:20.927Z,174.10
2017-12-19T22:09:21.920Z,178.70
2017-12-19T22:11:22.891Z,192.53
2017-12-19T22:13:23.887Z,211.80
2017-12-19T22:15:24.870Z,164.77
2017-12-19T22:17:25.820Z,248.67
2017-12-19T22:19:26.774Z,159.77
2017-12-19T22:21:27.729Z,179.10
2017-12-19T22:23:28.691Z,191.17
2017-12-19T22:25:29.646Z,243.20
2017-12-19T22:27:30.597Z,186.47
2017-12-19T22:29:31.589Z,202.63
2017-12-19T22:31:32.553Z,146.10
2017-12-19T22:33:33.539Z,173.37
2017-12-19T22:35:34.537Z,152.40
2017-12-19T22:37:36.241Z,149.50
2017-12-19T22:39:37.303Z,154.33
2017-12-19T22:41:38.268Z,135.70
2017-12-19T22:43:39.291Z,145.53
2017-12-19T22:45:40.291Z,171.33
2017-12-19T22:47:41.335Z,135.20
2017-12-19T22:49:43.040Z,145.50
2017-12-19T22:51:44.008Z,159.83
2017-12-19T22:53:45.004Z,115.27
2017-12-19T22:55:46.695Z,123.10
2017-12-19T22:57:48.591Z,126.80
2017-12-19T22:59:49.650Z,134.33
2017-12-19T23:01:50.624Z,131.20
2017-12-19T23:03:51.591Z,137.70
2017-12-19T23:05:52.633Z,110.13
2017-12-19T23:07:53.693Z,109.50
2017-12-19T23:09:54.661Z,112.10
2017-12-19T23:11:55.610Z,87.20
2017-12-19T23:13:56.627Z,104.43
2017-12-19T23:15:57.647Z,95.27
2017-12-19T23:17:58.634Z,103.30
2017-12-19T23:19:59.664Z,111.73
2017-12-19T23:22:00.660Z,97.43
2017-12-19T23:24:01.663Z,93.73
2017-12-19T23:26:02.664Z,138.37
2017-12-19T23:28:03.667Z,114.80
2017-12-19T23:30:04.648Z,123.10
2017-12-19T23:32:05.654Z,115.27
2017-12-19T23:34:06.711Z,91.03
2017-12-19T23:36:07.658Z,104.53
2017-12-19T23:38:08.646Z,100.63
2017-12-19T23:40:09.617Z,125.10
2017-12-19T23:42:11.316Z,104.07
2017-12-19T23:44:12.346Z,128.73
2017-12-19T23:46:13.420Z,102.17
2017-12-19T23:48:14.444Z,111.50
2017-12-19T23:50:15.412Z,107.00
2017-12-19T23:52:16.405Z,133.40
2017-12-19T23:54:18.216Z,108.73
2017-12-19T23:56:19.176Z,122.40
2017-12-19T23:58:20.177Z,105.80
